Wytheville, Virginia
Current Conditions -  °F | °C
As of 3:35 PM on Saturday 25 Oct 2014 (Local Time) from KMKJ Reporting Station
Clear Clear  
Wind Chill: 18°   Ceiling: Unl
Heat Index: 18°   Visibility: 10mi
Dew Point:   Wind: 12mph
Humidity: 50%   Direction: 240°WSW
Pressure: 30.02"   Gusts: 18mph
Location:  36.95°N, 81.08°W
Report Text: KMKJ 251935Z AUTO 24010G16KT 10SM CLR 18/08 A3002 RMK AO2 T01810075
Loading
Personal Weather Stations






























Interactive Weather Map
Tropical Storm Tracking
New forecast layout! Learn more

10-Day Weather Forecast

Advertisements
Track Severe Weather on mobile